Vn Rebel _ — ILBR — position and weather

sailwx.info

Track history (hours):
 
Tides and Currents Weather Stations Pressure Air Temp Water Temp Dewpoint Dewpoint Depression Visibility Wind Speed Wind Dir Waves Ship Positions

Vn Rebel _

Last reported at 2015-Mar-26 06:33 UTC. Time now 2015-Mar-27 22:12 UTC.
Position N 43°07' E 005°55'.

Length 45 m; draft 2.4 m.

MMSI: 247010300.

Date/timePositionNaut miles runAvg speedWind from/ knotsBaromVisibWave heightAir tempDewpointWater temp
2015-Mar-26 06:33N 43°07' E 005°55'0 0.0
2015-Mar-26 05:33N 43°07' E 005°55'0 0.0
2015-Mar-26 04:33N 43°07' E 005°55'0 0.0
2015-Mar-26 03:33N 43°07' E 005°55'0 0.0
2015-Mar-26 02:33N 43°07' E 005°55'0 0.0
2015-Mar-26 01:33N 43°07' E 005°55'0 0.0
2015-Mar-26 00:33N 43°07' E 005°55'0 0.0
2015-Mar-25 23:33N 43°07' E 005°55'0 0.0
2015-Mar-25 22:33N 43°07' E 005°55'0 0.0
2015-Mar-25 21:33N 43°07' E 005°55'0 0.0
2015-Mar-25 20:33N 43°07' E 005°55'0 0.0
2015-Mar-25 19:33N 43°07' E 005°55'0 0.0
2015-Mar-25 18:33N 43°07' E 005°55'0 0.0
2015-Mar-25 17:33N 43°07' E 005°55'4 0.6
2015-Mar-25 10:14N 43°04' E 005°59'4 6.2
2015-Mar-25 09:33N 43°07' E 005°55'0 0.0
2015-Mar-25 08:31N 43°07' E 005°55'0 0.0
2015-Mar-25 07:31N 43°07' E 005°55'  
2015-Mar-22 21:33N 43°07' E 005°55'1 0.6
2015-Mar-22 20:33N 43°07' E 005°55'0 0.4
2015-Mar-22 19:33N 43°07' E 005°55'4 4.2
2015-Mar-22 18:33N 43°03' E 005°54'2 0.1
2015-Mar-21 21:20N 43°02' E 005°52'5 6.6
2015-Mar-21 20:34N 43°05' E 005°57'3 2.5
2015-Mar-21 19:31N 43°07' E 005°55'  
2015-Mar-16 14:33N 43°06' E 005°55'1 0.7
2015-Mar-16 13:33N 43°05' E 005°55'  
Track history (hours):
 
Tides and Currents Weather Stations Pressure Air Temp Water Temp Dewpoint Dewpoint Depression Visibility Wind Speed Wind Dir Waves Ship Positions

Vn Rebel _

Last reported at 2015-Mar-26 06:33 UTC. Time now 2015-Mar-27 22:12 UTC.
Position N 43°07' E 005°55'.

Length 45 m; draft 2.4 m.

MMSI: 247010300.

Date/timePositionNaut miles runAvg speedWind from/ knotsBaromVisibWave heightAir tempDewpointWater temp
2015-Mar-26 06:33N 43°07' E 005°55'0 0.0
2015-Mar-26 05:33N 43°07' E 005°55'0 0.0
2015-Mar-26 04:33N 43°07' E 005°55'0 0.0
2015-Mar-26 03:33N 43°07' E 005°55'0 0.0
2015-Mar-26 02:33N 43°07' E 005°55'0 0.0
2015-Mar-26 01:33N 43°07' E 005°55'0 0.0
2015-Mar-26 00:33N 43°07' E 005°55'0 0.0
2015-Mar-25 23:33N 43°07' E 005°55'0 0.0
2015-Mar-25 22:33N 43°07' E 005°55'0 0.0
2015-Mar-25 21:33N 43°07' E 005°55'0 0.0
2015-Mar-25 20:33N 43°07' E 005°55'0 0.0
2015-Mar-25 19:33N 43°07' E 005°55'0 0.0
2015-Mar-25 18:33N 43°07' E 005°55'0 0.0
2015-Mar-25 17:33N 43°07' E 005°55'4 0.6
2015-Mar-25 10:14N 43°04' E 005°59'4 6.2
2015-Mar-25 09:33N 43°07' E 005°55'0 0.0
2015-Mar-25 08:31N 43°07' E 005°55'0 0.0
2015-Mar-25 07:31N 43°07' E 005°55'  
2015-Mar-22 21:33N 43°07' E 005°55'1 0.6
2015-Mar-22 20:33N 43°07' E 005°55'0 0.4
2015-Mar-22 19:33N 43°07' E 005°55'4 4.2
2015-Mar-22 18:33N 43°03' E 005°54'2 0.1
2015-Mar-21 21:20N 43°02' E 005°52'5 6.6
2015-Mar-21 20:34N 43°05' E 005°57'3 2.5
2015-Mar-21 19:31N 43°07' E 005°55'  
2015-Mar-16 14:33N 43°06' E 005°55'1 0.7
2015-Mar-16 13:33N 43°05' E 005°55'  

Dump ship's entire track history